Davison Army Air Field Fort Belvoir US
ICAO: KDAA
IATA: DAA
Category: Medium
Scheduled Services: No

Elevation: 73 ft
TransAlt. 18000 ft.

Airport Communications:
POTOMAC APP:119.85
ATIS:128.175
CLNC DEL:24.52
CTAF:126.3
POTOMAC DEP:118.1
GND:121.9
ARNG OPS:52.75
BASE OPS:139.4
PMSV METRO:139.4
PTD:139.4
TWR:126.3

KDAA Zoom In..

If you have problems with the map follow the link
https://www.worldairports.se/pages/airport.php?
ICAO=KDAA

Runways:

(A) RW 14 length 5619 ft width 75 ft
---- / hdg 142

(B) RW 32 length 5619 ft width 75 ft
ILS 108.90 / hdg 322

Location; KDAA
Day. 26 / Time. 00.56 Zulu
* Altimeter: 29.89
* Temperature: 06° c. 42.8°f.
* Wind from: 000° Speed 00 kn.
Dewpoint: 03° c.
Visibility: 10 Statute Miles.
Clouds: Scattered 6000 ft.

KDAA 260056Z AUTO 00000KT 10SM SCT060 06/03 A2989 RMK AO2 SLP125 T00550033 $


Wind - Calm.

 
 
jpsmedia worldairports.se 2020   terms of use